Time;durP1;ratioP1;P1;durP2;ratioP2;P2;SDS_P1;SDS_P2;PMS_P1;PMS_P2;Temp;Humidity;BMP_temperature;BMP_pressure;BME280_temperature;BME280_humidity;BME280_pressure;Samples;Min_cycle;Max_cycle;Signal;HPM_P1;HPM_P2
2022/03/18 00:02:17;;;;;;;63.22;41.67;;;9.30;81.20;;;;;;5023271;28;20112;-65
2022/03/18 00:04:43;;;;;;;60.60;40.03;;;9.40;81.20;;;;;;5024208;28;20501;-65
2022/03/18 00:07:09;;;;;;;61.03;39.45;;;9.40;81.10;;;;;;5023073;28;20040;-65
2022/03/18 00:09:35;;;;;;;61.05;41.13;;;9.40;81.00;;;;;;5023492;28;20031;-65
2022/03/18 00:12:00;;;;;;;63.20;41.80;;;9.40;81.00;;;;;;5020754;28;22648;-65
2022/03/18 00:14:26;;;;;;;60.80;40.85;;;9.40;80.80;;;;;;5020982;28;20037;-65
2022/03/18 00:16:52;;;;;;;67.78;42.08;;;9.40;80.80;;;;;;5019068;28;20048;-64
2022/03/18 00:19:18;;;;;;;66.88;43.38;;;9.40;80.70;;;;;;5023080;28;20443;-65
2022/03/18 00:21:43;;;;;;;64.85;43.25;;;9.50;80.60;;;;;;5022217;28;20706;-65
2022/03/18 00:24:09;;;;;;;65.55;42.78;;;9.40;80.50;;;;;;5020938;28;20049;-65
2022/03/18 00:26:35;;;;;;;64.68;41.85;;;9.50;80.50;;;;;;5019496;28;20479;-65
2022/03/18 00:29:01;;;;;;;64.90;41.90;;;9.40;80.40;;;;;;5019197;28;20036;-65
2022/03/18 00:31:28;;;;;;;61.58;40.90;;;9.40;80.30;;;;;;5020545;28;20025;-65
2022/03/18 00:33:54;;;;;;;62.67;41.10;;;9.40;80.30;;;;;;5015960;28;20140;-64
2022/03/18 00:36:20;;;;;;;62.20;41.58;;;9.40;80.30;;;;;;5022255;28;20125;-65
2022/03/18 00:38:45;;;;;;;63.40;41.42;;;9.40;80.30;;;;;;5021666;28;20037;-65
2022/03/18 00:41:11;;;;;;;61.55;40.80;;;9.40;80.30;;;;;;5017879;28;20037;-65
2022/03/18 00:43:37;;;;;;;59.70;39.92;;;9.40;80.30;;;;;;5018143;28;20449;-64
2022/03/18 00:46:02;;;;;;;62.03;40.97;;;9.40;80.30;;;;;;5022221;28;20041;-63
2022/03/18 00:53:56;;;;;;;65.03;42.17;;;9.50;80.10;;;;;;5020933;28;20414;-64
2022/03/18 00:56:22;;;;;;;66.05;42.80;;;9.50;80.00;;;;;;5018920;28;20070;-63
2022/03/18 00:58:48;;;;;;;63.28;42.13;;;9.40;80.00;;;;;;5020169;28;20412;-65
2022/03/18 01:01:14;;;;;;;65.88;43.80;;;9.40;80.00;;;;;;5016414;28;20089;-65
2022/03/18 01:03:39;;;;;;;63.42;40.47;;;9.40;80.00;;;;;;5022867;28;20393;-65
2022/03/18 01:06:05;;;;;;;61.33;40.17;;;9.40;80.00;;;;;;5024476;28;20508;-65
2022/03/18 01:08:31;;;;;;;57.58;38.53;;;9.30;80.10;;;;;;5024560;28;20068;-65
2022/03/18 01:10:57;;;;;;;59.33;40.10;;;9.30;80.20;;;;;;5017635;28;20069;-65
2022/03/18 01:13:23;;;;;;;62.45;42.15;;;9.30;80.20;;;;;;5018595;28;20041;-65
2022/03/18 01:15:49;;;;;;;65.35;42.13;;;9.30;80.20;;;;;;5022286;28;20120;-65
2022/03/18 01:18:14;;;;;;;58.85;38.03;;;9.30;80.20;;;;;;5018143;28;20117;-65
2022/03/18 01:20:40;;;;;;;61.55;40.58;;;9.30;80.20;;;;;;5020909;28;20026;-65
2022/03/18 01:23:06;;;;;;;63.05;41.65;;;9.30;80.20;;;;;;5027291;28;20091;-65
2022/03/18 01:25:33;;;;;;;62.60;41.10;;;9.30;80.10;;;;;;5027403;28;20033;-65
2022/03/18 01:28:01;;;;;;;56.53;39.08;;;9.30;80.10;;;;;;5021209;28;20164;-65
2022/03/18 01:30:28;;;;;;;59.05;38.38;;;9.30;80.00;;;;;;5024337;28;20030;-65
2022/03/18 01:32:54;;;;;;;56.55;38.00;;;9.30;80.00;;;;;;5022264;28;20681;-65
2022/03/18 01:35:20;;;;;;;56.17;36.78;;;9.30;80.00;;;;;;5024786;28;20038;-65
2022/03/18 01:37:45;;;;;;;55.63;37.35;;;9.30;80.00;;;;;;5022082;28;20404;-65
2022/03/18 01:40:11;;;;;;;58.28;38.35;;;9.30;79.90;;;;;;5018376;28;20038;-65
2022/03/18 01:42:37;;;;;;;54.20;36.63;;;9.30;79.80;;;;;;5017556;28;20029;-65
2022/03/18 01:45:03;;;;;;;57.33;37.25;;;9.30;79.80;;;;;;5019256;28;20073;-64
2022/03/18 01:47:28;;;;;;;58.00;39.97;;;9.30;79.90;;;;;;5021182;28;20037;-65
2022/03/18 01:49:54;;;;;;;57.50;36.85;;;9.30;79.80;;;;;;5019180;28;21257;-65
2022/03/18 01:52:20;;;;;;;54.70;37.08;;;9.30;79.80;;;;;;5017589;28;20221;-65
2022/03/18 01:54:49;;;;;;;56.33;38.55;;;9.30;79.80;;;;;;5018464;28;20408;-65
2022/03/18 01:57:17;;;;;;;56.20;38.80;;;9.30;79.70;;;;;;5016522;28;20033;-65
2022/03/18 01:59:43;;;;;;;59.33;38.78;;;9.30;79.70;;;;;;5019140;28;20033;-62
2022/03/18 02:02:09;;;;;;;54.55;37.60;;;9.30;79.70;;;;;;5015174;28;20378;-65
2022/03/18 02:04:36;;;;;;;55.97;37.92;;;9.30;79.60;;;;;;5021377;28;20706;-65
2022/03/18 02:07:03;;;;;;;53.95;36.10;;;9.30;79.60;;;;;;5022293;28;20044;-65
2022/03/18 02:09:30;;;;;;;57.40;38.38;;;9.20;79.60;;;;;;5022179;28;20029;-65
2022/03/18 02:11:56;;;;;;;55.58;37.50;;;9.20;79.60;;;;;;5015704;28;20051;-64
2022/03/18 02:14:29;;;;;;;54.08;36.92;;;9.20;79.60;;;;;;5020537;28;20644;-65
2022/03/18 02:16:55;;;;;;;57.80;38.47;;;9.20;79.80;;;;;;5020747;28;20036;-65
2022/03/18 02:19:20;;;;;;;54.60;37.20;;;9.20;79.60;;;;;;5018684;28;20643;-66
2022/03/18 02:21:48;;;;;;;53.88;36.25;;;9.20;79.60;;;;;;5019113;28;20409;-65
2022/03/18 02:24:14;;;;;;;55.70;38.15;;;9.20;79.70;;;;;;5015575;28;20497;-65
2022/03/18 02:26:39;;;;;;;51.47;35.42;;;9.20;79.60;;;;;;5019360;28;20095;-65
2022/03/18 02:29:07;;;;;;;56.15;36.33;;;9.20;79.60;;;;;;5019438;28;20033;-65
2022/03/18 02:31:33;;;;;;;54.83;35.75;;;9.20;79.60;;;;;;5017558;28;20033;-65
2022/03/18 02:33:58;;;;;;;50.88;34.83;;;9.20;79.60;;;;;;5018634;28;20053;-65
2022/03/18 02:36:24;;;;;;;51.40;35.75;;;9.20;79.60;;;;;;5016610;28;20041;-64
2022/03/18 02:38:50;;;;;;;55.33;35.03;;;9.20;79.60;;;;;;5018167;28;20041;-65
2022/03/18 02:41:15;;;;;;;52.10;36.40;;;9.20;79.60;;;;;;5019516;28;20032;-65
2022/03/18 02:43:41;;;;;;;55.15;37.15;;;9.20;79.70;;;;;;5015634;28;20519;-65
2022/03/18 02:46:07;;;;;;;54.20;36.17;;;9.20;79.60;;;;;;5018277;28;20091;-65
2022/03/18 02:48:33;;;;;;;53.25;35.85;;;9.20;79.70;;;;;;5017057;28;20377;-65
2022/03/18 02:50:58;;;;;;;53.08;36.15;;;9.20;80.60;;;;;;5016071;28;20041;-65
2022/03/18 02:53:24;;;;;;;53.70;35.28;;;9.20;79.80;;;;;;5015520;28;20753;-65
2022/03/18 02:55:50;;;;;;;53.58;35.20;;;9.20;79.80;;;;;;5020702;28;20527;-65
2022/03/18 02:58:16;;;;;;;48.67;34.50;;;9.20;79.70;;;;;;5018396;28;20029;-65
2022/03/18 03:00:41;;;;;;;51.05;34.13;;;9.20;79.80;;;;;;5019694;28;20042;-65
2022/03/18 03:03:07;;;;;;;51.25;34.63;;;9.20;79.70;;;;;;5018643;28;20488;-62
2022/03/18 03:08:17;;;;;;;49.80;33.15;;;9.20;79.80;;;;;;5027623;28;20560;-65
2022/03/18 03:10:43;;;;;;;49.33;33.47;;;9.20;79.70;;;;;;5024833;28;20038;-65
2022/03/18 03:13:11;;;;;;;49.72;33.65;;;9.10;79.70;;;;;;5020346;28;20053;-65
2022/03/18 03:15:38;;;;;;;48.78;33.22;;;9.10;79.80;;;;;;5022361;28;20113;-65
2022/03/18 03:18:05;;;;;;;49.95;33.88;;;9.10;79.70;;;;;;5023855;28;20538;-65
2022/03/18 03:20:31;;;;;;;51.42;34.25;;;9.20;79.80;;;;;;5021206;28;20050;-65
2022/03/18 03:22:57;;;;;;;51.20;34.55;;;9.10;79.70;;;;;;5021880;28;20447;-65
2022/03/18 03:25:23;;;;;;;49.40;33.63;;;9.20;79.80;;;;;;5021013;28;20092;-65
2022/03/18 03:27:51;;;;;;;50.85;33.80;;;9.10;79.80;;;;;;5022886;28;20520;-65
2022/03/18 03:30:17;;;;;;;50.28;33.85;;;9.10;79.80;;;;;;5021854;28;20053;-65
2022/03/18 03:32:43;;;;;;;47.70;32.50;;;9.10;79.80;;;;;;5023011;28;20069;-65
2022/03/18 03:35:10;;;;;;;47.72;33.17;;;9.10;79.80;;;;;;5019406;28;20404;-66
2022/03/18 03:37:36;;;;;;;48.47;32.80;;;9.10;79.70;;;;;;5020889;28;20030;-65
2022/03/18 03:40:03;;;;;;;45.28;31.23;;;9.10;79.60;;;;;;5022898;28;20488;-65
2022/03/18 03:42:29;;;;;;;47.40;33.05;;;9.10;79.70;;;;;;5022467;28;20489;-63
2022/03/18 03:44:54;;;;;;;46.85;33.03;;;9.10;79.70;;;;;;5021694;28;20093;-65
2022/03/18 03:47:20;;;;;;;51.35;33.55;;;9.10;79.60;;;;;;5020874;28;20082;-65
2022/03/18 03:49:45;;;;;;;48.00;32.80;;;9.10;79.60;;;;;;5021060;28;20045;-65
2022/03/18 03:52:11;;;;;;;46.88;31.75;;;9.10;79.60;;;;;;5021113;28;20037;-65
2022/03/18 03:54:38;;;;;;;47.33;32.45;;;9.10;79.50;;;;;;5020489;28;20038;-65
2022/03/18 03:57:08;;;;;;;49.67;32.92;;;9.10;79.50;;;;;;5024175;28;20026;-65
2022/03/18 03:59:34;;;;;;;47.92;33.03;;;9.10;79.60;;;;;;5020098;28;20385;-64
2022/03/18 04:01:59;;;;;;;50.78;32.28;;;9.10;79.70;;;;;;5023637;28;20083;-65
2022/03/18 04:04:26;;;;;;;52.08;34.33;;;9.10;79.60;;;;;;5024525;28;20088;-65
2022/03/18 04:06:52;;;;;;;50.03;33.85;;;9.00;79.70;;;;;;5024821;28;20053;-65
2022/03/18 04:09:18;;;;;;;47.00;31.88;;;9.00;79.60;;;;;;5022892;28;20037;-65
2022/03/18 04:11:44;;;;;;;52.45;34.90;;;9.00;79.60;;;;;;5023154;28;20029;-65
2022/03/18 04:14:09;;;;;;;52.55;35.00;;;9.10;79.70;;;;;;5025468;28;20034;-64
2022/03/18 04:16:35;;;;;;;53.15;35.13;;;9.00;79.60;;;;;;5024194;28;20038;-65
2022/03/18 04:19:03;;;;;;;50.00;33.05;;;9.10;79.60;;;;;;5023546;28;20053;-64
2022/03/18 04:21:29;;;;;;;50.22;34.08;;;9.00;79.60;;;;;;5026261;28;20516;-65
2022/03/18 04:23:55;;;;;;;54.92;34.55;;;9.00;79.60;;;;;;5025883;28;20112;-65
2022/03/18 04:26:20;;;;;;;59.33;37.42;;;9.00;79.60;;;;;;5018082;28;20037;-65
2022/03/18 04:28:46;;;;;;;53.72;35.00;;;9.00;80.60;;;;;;5021306;28;20041;-65
2022/03/18 04:31:12;;;;;;;51.20;34.28;;;8.90;79.70;;;;;;5018770;28;20038;-65
2022/03/18 04:33:38;;;;;;;54.55;35.58;;;8.90;79.80;;;;;;5023107;28;20048;-65
2022/03/18 04:36:04;;;;;;;53.85;34.60;;;8.90;79.90;;;;;;5018008;28;20037;-65
2022/03/18 04:38:30;;;;;;;52.42;34.72;;;8.80;80.00;;;;;;5018505;28;20033;-65
2022/03/18 04:40:55;;;;;;;53.15;35.03;;;8.80;80.00;;;;;;5019321;28;20063;-65
2022/03/18 04:43:21;;;;;;;52.20;34.83;;;8.80;80.00;;;;;;5023434;28;20273;-65
2022/03/18 04:45:47;;;;;;;48.95;33.28;;;8.80;80.00;;;;;;5019534;28;20139;-66
2022/03/18 04:48:12;;;;;;;53.35;34.97;;;8.80;80.00;;;;;;5018270;28;20041;-62
2022/03/18 04:50:38;;;;;;;53.22;34.80;;;8.80;80.10;;;;;;5017652;28;20040;-65
2022/03/18 04:53:03;;;;;;;53.60;34.30;;;8.80;80.10;;;;;;5020291;28;20041;-65
2022/03/18 04:55:29;;;;;;;54.03;34.63;;;8.80;80.10;;;;;;5022879;28;20041;-65
2022/03/18 04:57:55;;;;;;;49.00;32.95;;;8.80;80.10;;;;;;5019761;28;20128;-65
2022/03/18 05:00:24;;;;;;;54.75;35.80;;;8.80;80.10;;;;;;5020703;28;20042;-64
2022/03/18 05:02:50;;;;;;;53.80;35.58;;;8.70;80.00;;;;;;5019547;28;20033;-65
2022/03/18 05:05:19;;;;;;;54.28;35.97;;;8.70;80.00;;;;;;5022403;28;20057;-64
2022/03/18 05:07:50;;;;;;;57.10;37.03;;;8.70;80.10;;;;;;5027358;28;20040;-65
2022/03/18 05:10:17;;;;;;;57.70;37.08;;;8.70;80.20;;;;;;5022477;28;20030;-65
2022/03/18 05:12:43;;;;;;;54.35;35.22;;;8.70;80.10;;;;;;5024898;28;20041;-66
2022/03/18 05:15:09;;;;;;;56.50;36.92;;;8.70;81.20;;;;;;5026412;28;20088;-65
2022/03/18 05:17:36;;;;;;;58.33;36.50;;;8.70;80.30;;;;;;5026469;28;20076;-65
2022/03/18 05:20:04;;;;;;;59.33;38.05;;;8.60;80.30;;;;;;5024805;28;20037;-65
2022/03/18 05:22:30;;;;;;;56.47;36.20;;;8.70;80.30;;;;;;5023846;28;20026;-65
2022/03/18 05:24:57;;;;;;;59.97;36.72;;;8.60;80.30;;;;;;5017870;28;20112;-64
2022/03/18 05:27:23;;;;;;;59.88;37.17;;;8.60;80.30;;;;;;5021456;28;20037;-65
2022/03/18 05:29:50;;;;;;;58.50;37.85;;;8.60;80.30;;;;;;5010884;28;20134;-64
2022/03/18 05:32:16;;;;;;;58.03;37.17;;;8.60;80.30;;;;;;5016108;28;20045;-64
2022/03/18 05:34:42;;;;;;;59.55;38.20;;;8.60;80.50;;;;;;5015800;28;20030;-63
2022/03/18 05:37:08;;;;;;;59.38;37.90;;;8.60;80.50;;;;;;5023323;28;20038;-63
2022/03/18 05:39:34;;;;;;;58.33;37.20;;;8.60;80.50;;;;;;5023524;28;20033;-64
2022/03/18 05:42:00;;;;;;;58.65;37.50;;;8.50;80.50;;;;;;5022227;28;20044;-64
2022/03/18 05:44:26;;;;;;;57.60;36.90;;;8.50;80.50;;;;;;5021430;28;20051;-64
2022/03/18 05:46:52;;;;;;;63.33;39.75;;;8.60;80.50;;;;;;5020593;28;20083;-63
2022/03/18 05:49:18;;;;;;;59.60;38.50;;;8.50;80.50;;;;;;5021922;28;20037;-64
2022/03/18 05:51:45;;;;;;;67.07;38.85;;;8.50;80.60;;;;;;5024348;28;20060;-64
2022/03/18 05:54:12;;;;;;;61.65;38.78;;;8.50;80.60;;;;;;5026467;28;20393;-64
2022/03/18 05:56:53;;;;;;;65.15;38.47;;;8.50;80.70;;;;;;5024400;28;20084;-63
2022/03/18 05:59:20;;;;;;;60.92;38.13;;;8.40;80.70;;;;;;5023966;28;20131;-64
2022/03/18 06:01:47;;;;;;;68.13;41.92;;;8.50;80.80;;;;;;5026754;28;20063;-64
2022/03/18 06:04:14;;;;;;;66.47;40.50;;;8.50;81.80;;;;;;5025856;28;20072;-64
2022/03/18 06:06:42;;;;;;;64.28;39.40;;;8.40;81.00;;;;;;5022792;28;20045;-64
2022/03/18 06:11:52;;;;;;;67.82;41.13;;;8.40;81.20;;;;;;5018687;28;20559;-64
2022/03/18 06:14:20;;;;;;;64.97;40.00;;;8.40;81.30;;;;;;5022351;28;20059;-63
2022/03/18 06:16:50;;;;;;;69.72;40.80;;;8.40;81.40;;;;;;5022793;28;20041;-65
2022/03/18 06:19:16;;;;;;;73.47;41.83;;;8.40;81.60;;;;;;5025115;28;20033;-65
2022/03/18 06:21:43;;;;;;;65.35;39.97;;;8.40;81.70;;;;;;5024687;28;20049;-63
2022/03/18 06:24:09;;;;;;;65.03;39.25;;;8.40;81.50;;;;;;5023423;28;20045;-64
2022/03/18 06:26:35;;;;;;;71.68;41.78;;;8.40;81.50;;;;;;5025585;28;20454;-64
2022/03/18 06:29:01;;;;;;;71.93;42.05;;;8.50;81.70;;;;;;5025857;28;20041;-64
2022/03/18 06:31:26;;;;;;;73.22;42.70;;;8.50;81.70;;;;;;5027485;28;20029;-63
2022/03/18 06:33:52;;;;;;;67.93;41.17;;;8.50;81.80;;;;;;5023961;28;20057;-64
2022/03/18 06:36:18;;;;;;;73.00;41.33;;;8.50;81.70;;;;;;5022635;28;20586;-64
2022/03/18 06:38:44;;;;;;;73.53;42.45;;;8.50;81.70;;;;;;5024453;28;20043;-64
2022/03/18 06:41:09;;;;;;;70.90;40.67;;;8.40;81.70;;;;;;5024650;28;20030;-64
2022/03/18 06:43:35;;;;;;;72.63;41.55;;;8.40;81.70;;;;;;5024553;28;20026;-64
2022/03/18 06:46:02;;;;;;;72.47;41.03;;;8.50;81.80;;;;;;5025892;28;20041;-63
2022/03/18 06:48:28;;;;;;;70.30;40.85;;;8.50;81.70;;;;;;5024862;28;20112;-64
2022/03/18 06:50:53;;;;;;;74.65;42.05;;;8.40;81.90;;;;;;5022253;28;20572;-64
2022/03/18 06:53:19;;;;;;;74.95;43.03;;;8.50;81.90;;;;;;5024398;28;20025;-63
2022/03/18 06:55:45;;;;;;;70.28;40.20;;;8.50;82.20;;;;;;5025175;28;20285;-64
2022/03/18 06:58:11;;;;;;;68.88;40.75;;;8.50;82.10;;;;;;5023827;28;20081;-64
2022/03/18 07:00:38;;;;;;;73.10;41.78;;;8.40;81.90;;;;;;5021217;28;20129;-64
2022/03/18 07:03:04;;;;;;;73.22;41.05;;;8.50;82.10;;;;;;5020116;28;20405;-64
2022/03/18 07:05:29;;;;;;;75.38;41.50;;;8.50;82.10;;;;;;5003740;28;20041;-61
2022/03/18 07:07:56;;;;;;;72.03;40.05;;;8.50;82.30;;;;;;5005824;28;20037;-64
2022/03/18 07:10:21;;;;;;;67.28;38.92;;;8.50;82.20;;;;;;5003201;28;20037;-63
2022/03/18 07:12:47;;;;;;;68.97;39.20;;;8.50;82.10;;;;;;5005848;28;20043;-63
2022/03/18 07:15:13;;;;;;;73.03;41.13;;;8.50;82.10;;;;;;5008761;28;20529;-64
2022/03/18 07:20:23;;;;;;;71.50;39.93;;;8.50;82.00;;;;;;5004173;28;20484;-64
2022/03/18 07:23:10;;;;;;;70.05;39.72;;;8.50;81.90;;;;;;5002885;28;20836;-64
2022/03/18 07:25:44;;;;;;;66.90;37.95;;;8.50;82.20;;;;;;5003678;28;20379;-65
2022/03/18 07:28:12;;;;;;;71.30;37.97;;;8.50;81.80;;;;;;5001517;28;20382;-64
2022/03/18 07:30:40;;;;;;;70.00;38.15;;;8.50;81.80;;;;;;5004385;28;20038;-64
2022/03/18 07:33:06;;;;;;;67.97;37.08;;;8.50;81.90;;;;;;5001674;28;20585;-63
2022/03/18 07:35:32;;;;;;;66.97;37.85;;;8.50;81.70;;;;;;5007374;28;20136;-64
2022/03/18 07:37:58;;;;;;;62.58;36.50;;;8.50;81.70;;;;;;5008309;28;20041;-64
2022/03/18 07:40:24;;;;;;;66.32;36.67;;;8.50;81.50;;;;;;5001803;28;20030;-63
2022/03/18 07:42:55;;;;;;;66.07;37.00;;;8.50;81.70;;;;;;5002686;28;22081;-62
2022/03/18 07:45:27;;;;;;;63.42;37.35;;;8.50;81.80;;;;;;5004550;28;20088;-64
2022/03/18 07:47:58;;;;;;;65.05;36.58;;;8.50;81.70;;;;;;5003345;28;20161;-63
2022/03/18 07:50:25;;;;;;;61.08;34.90;;;8.50;81.70;;;;;;5002169;28;20046;-66
2022/03/18 07:52:53;;;;;;;63.65;35.50;;;8.60;81.70;;;;;;5009022;28;20134;-64
2022/03/18 07:55:21;;;;;;;65.05;36.30;;;8.60;81.70;;;;;;5007720;28;20056;-64
2022/03/18 07:57:47;;;;;;;61.80;35.35;;;8.50;81.60;;;;;;5004697;28;20378;-63
2022/03/18 08:00:15;;;;;;;62.53;35.42;;;8.60;81.50;;;;;;5019150;28;20055;-64
2022/03/18 08:02:42;;;;;;;60.85;35.05;;;8.60;81.50;;;;;;5023455;28;20136;-64
2022/03/18 08:05:08;;;;;;;60.15;34.53;;;8.60;81.50;;;;;;5021981;28;20556;-64
2022/03/18 08:07:35;;;;;;;63.25;37.58;;;8.70;81.50;;;;;;5020737;28;20037;-65
2022/03/18 08:10:01;;;;;;;62.38;36.22;;;8.70;81.40;;;;;;5020536;28;20044;-64
2022/03/18 08:12:30;;;;;;;60.10;34.28;;;8.70;81.50;;;;;;5021009;28;20436;-64
2022/03/18 08:14:58;;;;;;;61.75;35.50;;;8.70;81.30;;;;;;5021974;28;20041;-64
2022/03/18 08:17:24;;;;;;;63.88;35.15;;;8.80;81.30;;;;;;5021370;28;20038;-65
2022/03/18 08:19:51;;;;;;;60.05;35.33;;;8.80;81.20;;;;;;5021988;28;20036;-64
2022/03/18 08:22:20;;;;;;;58.00;34.08;;;8.80;81.30;;;;;;5023173;28;20036;-65
2022/03/18 08:24:46;;;;;;;60.00;34.08;;;8.80;81.30;;;;;;5020406;28;22044;-64
2022/03/18 08:27:11;;;;;;;54.92;33.75;;;8.90;81.60;;;;;;5021873;28;20037;-64
2022/03/18 08:29:38;;;;;;;60.40;35.67;;;8.90;81.30;;;;;;5021230;28;20142;-65
2022/03/18 08:32:05;;;;;;;56.15;33.25;;;8.90;81.30;;;;;;5022127;28;20112;-64
2022/03/18 08:34:31;;;;;;;58.55;34.10;;;9.00;81.20;;;;;;5021374;28;20029;-64
2022/03/18 08:36:57;;;;;;;58.22;34.92;;;9.00;80.70;;;;;;5019510;28;20051;-64
2022/03/18 08:39:22;;;;;;;55.65;33.00;;;9.00;80.40;;;;;;5020078;28;20408;-65
2022/03/18 08:41:48;;;;;;;56.53;34.47;;;9.00;80.40;;;;;;5020835;28;20412;-64
2022/03/18 08:44:15;;;;;;;57.10;34.15;;;9.00;80.50;;;;;;5019725;28;20117;-64
2022/03/18 08:46:41;;;;;;;58.47;34.13;;;9.00;80.60;;;;;;5019166;28;20038;-64
2022/03/18 08:49:07;;;;;;;57.80;33.75;;;9.10;80.50;;;;;;5017002;28;20095;-65
2022/03/18 08:51:32;;;;;;;55.45;34.15;;;9.10;80.30;;;;;;5020210;28;20033;-64
2022/03/18 08:53:58;;;;;;;55.95;33.45;;;9.10;80.10;;;;;;5021304;28;20437;-65
2022/03/18 08:56:23;;;;;;;54.33;32.72;;;9.10;80.10;;;;;;5020229;28;20044;-64
2022/03/18 08:58:50;;;;;;;56.10;33.60;;;9.10;79.80;;;;;;5021795;28;20501;-64
2022/03/18 09:01:16;;;;;;;54.58;33.70;;;9.20;79.70;;;;;;5023187;28;20547;-63
2022/03/18 09:03:41;;;;;;;55.25;34.55;;;9.20;79.60;;;;;;5018762;28;20045;-64
2022/03/18 09:06:07;;;;;;;55.63;33.88;;;9.20;79.50;;;;;;5024810;28;20520;-65
2022/03/18 09:08:32;;;;;;;51.92;31.60;;;9.30;79.40;;;;;;5025288;28;20038;-64
2022/03/18 09:10:58;;;;;;;57.08;34.85;;;9.20;79.40;;;;;;5020220;28;20041;-65
2022/03/18 09:13:24;;;;;;;53.20;33.08;;;9.30;79.40;;;;;;5019694;28;20034;-65
2022/03/18 09:15:50;;;;;;;53.17;33.70;;;9.30;79.40;;;;;;5023165;28;20073;-64
2022/03/18 09:18:16;;;;;;;57.00;34.70;;;9.40;79.40;;;;;;5026060;28;20535;-65
2022/03/18 09:20:42;;;;;;;56.50;33.53;;;9.40;79.10;;;;;;5023922;28;20102;-65
2022/03/18 09:23:08;;;;;;;51.97;33.08;;;9.40;78.80;;;;;;5023434;28;20512;-66
2022/03/18 09:25:35;;;;;;;53.55;32.80;;;9.40;78.70;;;;;;5023204;28;20032;-65
2022/03/18 09:28:03;;;;;;;52.15;32.83;;;9.40;78.60;;;;;;5021942;28;20026;-63
2022/03/18 09:30:29;;;;;;;56.53;33.70;;;9.40;78.50;;;;;;5020793;28;20034;-65
2022/03/18 09:32:54;;;;;;;51.97;31.83;;;9.50;78.40;;;;;;5021370;28;20492;-65
2022/03/18 09:35:21;;;;;;;50.90;31.77;;;9.50;78.20;;;;;;5020607;28;20061;-64
2022/03/18 09:37:47;;;;;;;50.38;31.73;;;9.50;78.00;;;;;;5021190;28;20079;-64
2022/03/18 09:40:13;;;;;;;50.67;31.38;;;9.50;78.00;;;;;;5021673;28;20497;-65
2022/03/18 09:43:02;;;;;;;51.35;32.00;;;9.50;78.00;;;;;;5022253;28;20572;-65
2022/03/18 09:45:31;;;;;;;50.35;31.52;;;9.50;77.90;;;;;;5020436;28;20578;-65
2022/03/18 09:48:02;;;;;;;52.25;33.17;;;9.50;78.00;;;;;;5016863;28;20153;-64
2022/03/18 09:50:29;;;;;;;48.63;31.25;;;9.60;77.30;;;;;;5018343;28;20226;-65
2022/03/18 09:52:55;;;;;;;51.08;32.15;;;9.60;77.20;;;;;;5019399;28;20026;-64
2022/03/18 09:55:22;;;;;;;47.47;30.60;;;9.60;77.20;;;;;;5023126;28;20042;-65
2022/03/18 09:57:47;;;;;;;49.00;32.45;;;9.60;77.10;;;;;;5021237;28;20108;-64
2022/03/18 10:00:13;;;;;;;51.10;31.90;;;9.70;77.10;;;;;;5022753;28;20120;-65
2022/03/18 10:02:39;;;;;;;49.45;30.45;;;9.60;76.90;;;;;;5021297;28;20698;-64
2022/03/18 10:05:10;;;;;;;47.03;30.23;;;9.70;77.10;;;;;;5019318;28;20092;-64
2022/03/18 10:07:37;;;;;;;47.97;30.77;;;9.70;77.00;;;;;;5019836;28;20046;-64
2022/03/18 10:10:14;;;;;;;48.33;29.73;;;9.70;76.90;;;;;;5020657;28;20767;-64
2022/03/18 10:12:45;;;;;;;47.92;30.20;;;9.70;76.70;;;;;;5017108;28;20639;-65
2022/03/18 10:15:22;;;;;;;48.83;30.38;;;9.70;76.60;;;;;;5019157;28;20497;-65
2022/03/18 10:17:53;;;;;;;47.38;29.98;;;9.80;76.30;;;;;;5017622;28;20111;-65
2022/03/18 10:20:33;;;;;;;47.72;30.17;;;9.80;76.30;;;;;;5018994;28;20514;-64
2022/03/18 10:23:19;;;;;;;47.45;30.08;;;9.80;76.10;;;;;;5025049;28;20038;-65
2022/03/18 10:25:53;;;;;;;46.70;30.27;;;9.80;76.00;;;;;;5027034;28;20080;-64
2022/03/18 10:28:36;;;;;;;46.85;30.30;;;9.90;76.60;;;;;;5027976;28;20030;-63
2022/03/18 10:31:14;;;;;;;47.95;30.50;;;9.90;75.70;;;;;;5027558;28;20052;-64
2022/03/18 10:39:24;;;;;;;48.50;30.05;;;10.00;76.00;;;;;;5021806;28;20421;-65
2022/03/18 10:41:49;;;;;;;50.42;30.25;;;10.10;75.70;;;;;;5023496;28;20055;-64
2022/03/18 10:44:18;;;;;;;46.08;29.30;;;10.20;75.90;;;;;;5023055;28;20041;-64
2022/03/18 10:46:43;;;;;;;45.95;28.70;;;10.20;76.00;;;;;;5022325;28;20065;-65
2022/03/18 10:49:10;;;;;;;46.47;30.00;;;10.30;75.90;;;;;;5020707;28;20498;-65
2022/03/18 10:51:40;;;;;;;45.22;28.63;;;10.30;75.80;;;;;;5022266;28;20116;-64
2022/03/18 10:54:06;;;;;;;42.45;28.88;;;10.40;75.90;;;;;;5024334;28;20061;-64
2022/03/18 10:56:55;;;;;;;43.83;29.63;;;10.50;75.90;;;;;;5016397;28;20120;-64
2022/03/18 10:59:22;;;;;;;42.00;28.30;;;10.60;74.40;;;;;;5022497;28;20034;-64
2022/03/18 11:01:50;;;;;;;47.10;29.98;;;10.60;74.80;;;;;;5022634;28;20037;-65
2022/03/18 11:04:16;;;;;;;46.50;29.70;;;10.70;74.60;;;;;;5024777;28;20040;-64
2022/03/18 11:06:43;;;;;;;43.83;28.65;;;10.70;74.40;;;;;;5024758;28;20026;-64
2022/03/18 11:11:06;;;;;;;46.17;30.30;;;10.80;74.30;;;;;;5023787;28;20036;-64
2022/03/18 11:12:15;;;;;;;46.58;29.95;;;10.80;74.40;;;;;;5019883;28;20449;-65
2022/03/18 11:14:41;;;;;;;47.28;30.20;;;10.80;74.20;;;;;;5022097;28;20111;-64
2022/03/18 11:17:07;;;;;;;43.80;29.35;;;10.90;74.10;;;;;;5025563;28;20132;-65
2022/03/18 11:19:33;;;;;;;46.65;31.20;;;10.90;74.70;;;;;;5024960;28;20026;-66
2022/03/18 11:22:02;;;;;;;46.35;29.00;;;11.00;74.10;;;;;;5025275;28;20533;-64
2022/03/18 11:24:28;;;;;;;44.50;29.27;;;11.00;73.90;;;;;;5025160;28;20029;-65
2022/03/18 11:26:55;;;;;;;45.17;30.30;;;11.10;73.90;;;;;;5027345;28;20563;-64
2022/03/18 11:29:23;;;;;;;43.83;29.75;;;11.20;73.90;;;;;;5026538;28;20029;-65
2022/03/18 11:32:15;;;;;;;43.08;29.95;;;11.30;73.80;;;;;;5029411;28;20571;-64
2022/03/18 11:35:03;;;;;;;44.67;29.42;;;11.30;72.50;;;;;;5027716;28;20526;-65
2022/03/18 11:37:29;;;;;;;43.00;28.90;;;11.40;72.10;;;;;;5027356;28;20120;-65
2022/03/18 11:40:17;;;;;;;46.42;29.33;;;11.40;72.90;;;;;;5024857;28;20121;-63
2022/03/18 11:42:45;;;;;;;42.13;28.35;;;11.50;72.00;;;;;;5019926;28;20064;-65
2022/03/18 11:45:30;;;;;;;41.05;28.10;;;11.60;72.80;;;;;;5021802;28;20543;-65
2022/03/18 11:47:55;;;;;;;46.92;28.33;;;11.60;72.80;;;;;;5020619;28;20037;-64
2022/03/18 11:50:37;;;;;;;41.63;27.60;;;11.70;72.80;;;;;;5022507;28;20021;-65
2022/03/18 11:53:04;;;;;;;42.45;29.23;;;11.80;72.00;;;;;;5023440;28;20040;-64
2022/03/18 11:55:30;;;;;;;44.40;29.20;;;11.90;72.10;;;;;;5025625;28;20033;-65
2022/03/18 11:57:55;;;;;;;42.67;29.35;;;11.80;72.00;;;;;;5024268;28;20041;-65
2022/03/18 12:00:35;;;;;;;44.55;29.55;;;11.90;72.00;;;;;;5019140;28;20068;-63
2022/03/18 12:03:02;;;;;;;42.20;28.27;;;11.90;71.10;;;;;;5025459;28;20060;-64
2022/03/18 12:05:31;;;;;;;45.58;28.75;;;12.00;71.80;;;;;;5022452;28;21627;-65
2022/03/18 12:07:59;;;;;;;40.42;27.60;;;12.00;71.30;;;;;;5026296;28;20044;-65
2022/03/18 12:10:39;;;;;;;44.03;29.50;;;12.10;71.30;;;;;;5020320;28;20026;-63
2022/03/18 12:13:05;;;;;;;42.85;27.90;;;12.10;70.90;;;;;;5028323;28;20034;-65
2022/03/18 12:15:41;;;;;;;42.42;28.20;;;12.10;70.60;;;;;;5028232;28;20056;-65
2022/03/18 12:18:06;;;;;;;44.42;29.08;;;12.20;70.50;;;;;;5027042;28;20034;-65
2022/03/18 12:20:37;;;;;;;43.50;29.88;;;12.20;70.40;;;;;;5027168;28;20108;-64
2022/03/18 12:23:05;;;;;;;43.83;29.30;;;12.20;69.90;;;;;;5024114;28;20118;-65
2022/03/18 12:25:31;;;;;;;42.10;28.83;;;12.20;69.70;;;;;;5027733;28;20048;-65
2022/03/18 12:27:58;;;;;;;44.95;31.02;;;12.20;69.40;;;;;;5026650;28;20037;-65
2022/03/18 12:30:28;;;;;;;44.25;29.58;;;12.20;68.80;;;;;;5020854;28;20072;-65
2022/03/18 12:33:04;;;;;;;44.47;28.30;;;12.20;69.00;;;;;;5021787;28;20471;-64
2022/03/18 12:35:31;;;;;;;44.20;28.75;;;12.30;68.80;;;;;;5023272;28;20063;-66
2022/03/18 12:38:09;;;;;;;40.13;27.65;;;12.30;69.50;;;;;;5022837;28;20064;-65
2022/03/18 12:40:37;;;;;;;40.05;27.50;;;12.40;69.20;;;;;;5023075;28;20029;-65
2022/03/18 12:43:03;;;;;;;43.47;29.25;;;12.40;69.60;;;;;;5021260;28;20083;-64
2022/03/18 12:45:34;;;;;;;43.75;29.77;;;12.50;68.90;;;;;;5022499;28;20091;-64
2022/03/18 12:48:07;;;;;;;44.63;29.38;;;12.50;68.60;;;;;;5022903;28;20068;-64
2022/03/18 12:50:37;;;;;;;42.75;29.50;;;12.60;68.00;;;;;;5020110;28;20116;-65
2022/03/18 12:53:17;;;;;;;44.42;30.77;;;12.60;68.30;;;;;;5021624;28;20143;-65
2022/03/18 12:55:44;;;;;;;43.75;29.27;;;12.60;67.20;;;;;;5021140;28;20167;-65
2022/03/18 12:58:13;;;;;;;44.92;29.80;;;12.60;68.10;;;;;;5021440;28;20049;-65